sensor_id;sensor_type;location;lat;lon;timestamp;temperature;humidity
871;DHT22;422;51.280;7.236;2023-02-11T00:01:21;5.40;1.00
871;DHT22;422;51.280;7.236;2023-02-11T00:03:50;5.40;1.00
871;DHT22;422;51.280;7.236;2023-02-11T00:06:17;5.50;1.00
871;DHT22;422;51.280;7.236;2023-02-11T00:08:46;5.50;1.00
871;DHT22;422;51.280;7.236;2023-02-11T00:11:15;5.50;1.00
871;DHT22;422;51.280;7.236;2023-02-11T00:13:44;5.50;1.00
871;DHT22;422;51.280;7.236;2023-02-11T00:16:14;5.50;1.00
871;DHT22;422;51.280;7.236;2023-02-11T00:18:42;5.50;1.00
871;DHT22;422;51.280;7.236;2023-02-11T00:21:11;5.50;1.00
871;DHT22;422;51.280;7.236;2023-02-11T00:23:39;5.50;1.00
871;DHT22;422;51.280;7.236;2023-02-11T00:26:12;5.50;1.00
871;DHT22;422;51.280;7.236;2023-02-11T00:28:40;5.50;1.00
871;DHT22;422;51.280;7.236;2023-02-11T00:31:08;5.60;1.00
871;DHT22;422;51.280;7.236;2023-02-11T00:33:35;5.50;1.00
871;DHT22;422;51.280;7.236;2023-02-11T00:36:03;5.50;1.00
871;DHT22;422;51.280;7.236;2023-02-11T00:38:31;5.50;1.00
871;DHT22;422;51.280;7.236;2023-02-11T00:40:58;5.60;1.00
871;DHT22;422;51.280;7.236;2023-02-11T00:43:27;5.60;1.00
871;DHT22;422;51.280;7.236;2023-02-11T00:45:54;5.60;1.00
871;DHT22;422;51.280;7.236;2023-02-11T00:48:21;5.50;1.00
871;DHT22;422;51.280;7.236;2023-02-11T00:50:49;5.50;1.00
871;DHT22;422;51.280;7.236;2023-02-11T00:53:16;5.50;1.00
871;DHT22;422;51.280;7.236;2023-02-11T00:55:44;5.60;1.00
871;DHT22;422;51.280;7.236;2023-02-11T00:58:12;5.50;1.00
871;DHT22;422;51.280;7.236;2023-02-11T01:00:40;5.60;1.00
871;DHT22;422;51.280;7.236;2023-02-11T01:03:07;5.60;1.00
871;DHT22;422;51.280;7.236;2023-02-11T01:05:35;5.60;1.00
871;DHT22;422;51.280;7.236;2023-02-11T01:08:02;5.60;1.00
871;DHT22;422;51.280;7.236;2023-02-11T01:10:29;5.50;1.00
871;DHT22;422;51.280;7.236;2023-02-11T01:12:57;5.50;1.00
871;DHT22;422;51.280;7.236;2023-02-11T01:15:24;5.50;1.00
871;DHT22;422;51.280;7.236;2023-02-11T01:17:53;5.50;1.00
871;DHT22;422;51.280;7.236;2023-02-11T01:20:23;5.50;1.00
871;DHT22;422;51.280;7.236;2023-02-11T01:22:50;5.60;1.00
871;DHT22;422;51.280;7.236;2023-02-11T01:25:18;5.60;1.00
871;DHT22;422;51.280;7.236;2023-02-11T01:27:45;5.60;1.00
871;DHT22;422;51.280;7.236;2023-02-11T01:30:13;5.60;1.00
871;DHT22;422;51.280;7.236;2023-02-11T01:32:40;5.60;1.00
871;DHT22;422;51.280;7.236;2023-02-11T01:35:09;5.60;1.00
871;DHT22;422;51.280;7.236;2023-02-11T01:37:36;5.60;1.00
871;DHT22;422;51.280;7.236;2023-02-11T01:40:05;5.60;1.00
871;DHT22;422;51.280;7.236;2023-02-11T01:42:37;5.60;1.00
871;DHT22;422;51.280;7.236;2023-02-11T01:48:23;5.50;1.00
871;DHT22;422;51.280;7.236;2023-02-11T01:50:56;5.50;1.00
871;DHT22;422;51.280;7.236;2023-02-11T01:53:24;5.60;1.00
871;DHT22;422;51.280;7.236;2023-02-11T01:56:09;5.60;1.00
871;DHT22;422;51.280;7.236;2023-02-11T01:58:58;5.60;1.00
871;DHT22;422;51.280;7.236;2023-02-11T02:01:30;5.60;1.00
871;DHT22;422;51.280;7.236;2023-02-11T02:04:00;5.60;1.00
871;DHT22;422;51.280;7.236;2023-02-11T02:06:33;5.60;1.00
871;DHT22;422;51.280;7.236;2023-02-11T02:09:04;5.60;1.00
871;DHT22;422;51.280;7.236;2023-02-11T02:11:33;5.60;1.00
871;DHT22;422;51.280;7.236;2023-02-11T02:14:01;5.60;1.00
871;DHT22;422;51.280;7.236;2023-02-11T02:16:30;5.60;1.00
871;DHT22;422;51.280;7.236;2023-02-11T02:19:15;5.60;1.00
871;DHT22;422;51.280;7.236;2023-02-11T02:22:10;5.60;1.00
871;DHT22;422;51.280;7.236;2023-02-11T02:25:05;5.60;1.00
871;DHT22;422;51.280;7.236;2023-02-11T02:27:45;5.50;1.00
871;DHT22;422;51.280;7.236;2023-02-11T02:33:36;5.50;1.00
871;DHT22;422;51.280;7.236;2023-02-11T02:36:14;5.50;1.00
871;DHT22;422;51.280;7.236;2023-02-11T02:38:47;5.50;1.00
871;DHT22;422;51.280;7.236;2023-02-11T02:41:18;5.50;1.00
871;DHT22;422;51.280;7.236;2023-02-11T02:43:48;5.50;1.00
871;DHT22;422;51.280;7.236;2023-02-11T02:46:18;5.50;1.00
871;DHT22;422;51.280;7.236;2023-02-11T02:48:47;5.50;1.00
871;DHT22;422;51.280;7.236;2023-02-11T02:51:28;5.50;1.00
871;DHT22;422;51.280;7.236;2023-02-11T02:54:09;5.50;1.00
871;DHT22;422;51.280;7.236;2023-02-11T02:56:44;5.50;1.00
871;DHT22;422;51.280;7.236;2023-02-11T02:59:32;5.50;1.00
871;DHT22;422;51.280;7.236;2023-02-11T03:02:08;5.40;1.00
871;DHT22;422;51.280;7.236;2023-02-11T03:04:42;5.40;1.00
871;DHT22;422;51.280;7.236;2023-02-11T03:07:21;5.40;1.00
871;DHT22;422;51.280;7.236;2023-02-11T03:09:51;5.40;1.00
871;DHT22;422;51.280;7.236;2023-02-11T03:12:21;5.30;1.00
871;DHT22;422;51.280;7.236;2023-02-11T03:14:50;5.30;14.80
871;DHT22;422;51.280;7.236;2023-02-11T03:17:18;5.30;37.50
871;DHT22;422;51.280;7.236;2023-02-11T03:19:49;5.30;45.20
871;DHT22;422;51.280;7.236;2023-02-11T03:22:21;5.20;81.40
871;DHT22;422;51.280;7.236;2023-02-11T03:24:51;5.30;99.90
871;DHT22;422;51.280;7.236;2023-02-11T03:27:20;5.20;99.90
871;DHT22;422;51.280;7.236;2023-02-11T03:29:56;5.20;99.90
871;DHT22;422;51.280;7.236;2023-02-11T03:32:27;5.20;99.90
871;DHT22;422;51.280;7.236;2023-02-11T03:34:59;5.20;99.90
871;DHT22;422;51.280;7.236;2023-02-11T03:37:31;5.20;99.90
871;DHT22;422;51.280;7.236;2023-02-11T03:40:01;5.20;99.90
871;DHT22;422;51.280;7.236;2023-02-11T03:42:33;5.20;99.90
871;DHT22;422;51.280;7.236;2023-02-11T03:45:05;5.20;1.00
871;DHT22;422;51.280;7.236;2023-02-11T03:47:35;5.10;1.00
871;DHT22;422;51.280;7.236;2023-02-11T03:50:08;5.10;72.10
871;DHT22;422;51.280;7.236;2023-02-11T03:52:37;5.10;99.90
871;DHT22;422;51.280;7.236;2023-02-11T03:55:08;5.10;17.90
871;DHT22;422;51.280;7.236;2023-02-11T03:57:37;5.10;90.20
871;DHT22;422;51.280;7.236;2023-02-11T04:00:06;5.00;99.90
871;DHT22;422;51.280;7.236;2023-02-11T04:02:35;5.00;75.30
871;DHT22;422;51.280;7.236;2023-02-11T04:05:05;5.00;3.30
871;DHT22;422;51.280;7.236;2023-02-11T04:07:32;5.00;1.00
871;DHT22;422;51.280;7.236;2023-02-11T04:10:00;4.90;99.90
871;DHT22;422;51.280;7.236;2023-02-11T04:12:27;4.90;99.90
871;DHT22;422;51.280;7.236;2023-02-11T04:14:54;4.90;99.90
871;DHT22;422;51.280;7.236;2023-02-11T04:17:21;4.90;99.90
871;DHT22;422;51.280;7.236;2023-02-11T04:19:49;4.90;99.90
871;DHT22;422;51.280;7.236;2023-02-11T04:22:18;4.90;99.90
871;DHT22;422;51.280;7.236;2023-02-11T04:24:45;4.90;99.90
871;DHT22;422;51.280;7.236;2023-02-11T04:27:12;4.90;99.90
871;DHT22;422;51.280;7.236;2023-02-11T04:29:39;4.90;99.90
871;DHT22;422;51.280;7.236;2023-02-11T04:32:07;4.90;99.90
871;DHT22;422;51.280;7.236;2023-02-11T04:34:34;4.90;99.90
871;DHT22;422;51.280;7.236;2023-02-11T04:37:01;5.00;99.90
871;DHT22;422;51.280;7.236;2023-02-11T04:39:30;5.00;99.90
871;DHT22;422;51.280;7.236;2023-02-11T04:41:57;4.90;99.90
871;DHT22;422;51.280;7.236;2023-02-11T04:44:24;4.90;99.90
871;DHT22;422;51.280;7.236;2023-02-11T04:46:52;4.90;99.90
871;DHT22;422;51.280;7.236;2023-02-11T04:49:19;4.90;99.90
871;DHT22;422;51.280;7.236;2023-02-11T04:51:46;4.90;99.90
871;DHT22;422;51.280;7.236;2023-02-11T04:54:13;4.90;99.90
871;DHT22;422;51.280;7.236;2023-02-11T04:56:42;4.90;99.90
871;DHT22;422;51.280;7.236;2023-02-11T04:59:09;4.90;99.90
871;DHT22;422;51.280;7.236;2023-02-11T05:01:38;4.90;99.90
871;DHT22;422;51.280;7.236;2023-02-11T05:04:05;4.90;99.90
871;DHT22;422;51.280;7.236;2023-02-11T05:06:33;4.80;99.90
871;DHT22;422;51.280;7.236;2023-02-11T05:09:00;4.80;99.90
871;DHT22;422;51.280;7.236;2023-02-11T05:11:28;4.80;99.90
871;DHT22;422;51.280;7.236;2023-02-11T05:13:57;4.80;99.90
871;DHT22;422;51.280;7.236;2023-02-11T05:16:24;4.80;99.90
871;DHT22;422;51.280;7.236;2023-02-11T05:18:51;4.80;99.90
871;DHT22;422;51.280;7.236;2023-02-11T05:21:20;4.80;99.90
871;DHT22;422;51.280;7.236;2023-02-11T05:23:48;4.80;99.90
871;DHT22;422;51.280;7.236;2023-02-11T05:26:15;4.80;99.90
871;DHT22;422;51.280;7.236;2023-02-11T05:28:43;4.70;99.90
871;DHT22;422;51.280;7.236;2023-02-11T05:31:12;4.80;99.90
871;DHT22;422;51.280;7.236;2023-02-11T05:33:40;4.80;99.90
871;DHT22;422;51.280;7.236;2023-02-11T05:36:08;4.80;99.90
871;DHT22;422;51.280;7.236;2023-02-11T05:38:36;4.80;99.90
871;DHT22;422;51.280;7.236;2023-02-11T05:41:04;4.70;99.90
871;DHT22;422;51.280;7.236;2023-02-11T05:43:32;4.70;99.90
871;DHT22;422;51.280;7.236;2023-02-11T05:46:02;4.70;99.90
871;DHT22;422;51.280;7.236;2023-02-11T05:48:31;4.70;99.90
871;DHT22;422;51.280;7.236;2023-02-11T05:50:58;4.70;99.90
871;DHT22;422;51.280;7.236;2023-02-11T05:53:25;4.70;99.90
871;DHT22;422;51.280;7.236;2023-02-11T05:55:52;4.80;99.90
871;DHT22;422;51.280;7.236;2023-02-11T05:58:20;4.80;99.90
871;DHT22;422;51.280;7.236;2023-02-11T06:00:47;4.80;99.90
871;DHT22;422;51.280;7.236;2023-02-11T06:03:14;4.70;99.90
871;DHT22;422;51.280;7.236;2023-02-11T06:05:45;4.80;99.90
871;DHT22;422;51.280;7.236;2023-02-11T06:08:12;4.80;99.90
871;DHT22;422;51.280;7.236;2023-02-11T06:10:39;4.80;99.90
871;DHT22;422;51.280;7.236;2023-02-11T06:13:09;4.80;99.90
871;DHT22;422;51.280;7.236;2023-02-11T06:15:36;4.80;99.90
871;DHT22;422;51.280;7.236;2023-02-11T06:18:04;4.80;99.90
871;DHT22;422;51.280;7.236;2023-02-11T06:20:31;4.80;99.90
871;DHT22;422;51.280;7.236;2023-02-11T06:23:00;4.80;99.90
871;DHT22;422;51.280;7.236;2023-02-11T06:25:27;4.80;99.90
871;DHT22;422;51.280;7.236;2023-02-11T06:27:54;4.80;99.90
871;DHT22;422;51.280;7.236;2023-02-11T06:30:21;4.80;99.90
871;DHT22;422;51.280;7.236;2023-02-11T06:32:48;4.90;99.90
871;DHT22;422;51.280;7.236;2023-02-11T06:35:16;4.80;99.90
871;DHT22;422;51.280;7.236;2023-02-11T06:37:43;4.80;99.90
871;DHT22;422;51.280;7.236;2023-02-11T06:40:12;4.80;99.90
871;DHT22;422;51.280;7.236;2023-02-11T06:42:39;4.90;99.90
871;DHT22;422;51.280;7.236;2023-02-11T06:45:07;4.80;99.90
871;DHT22;422;51.280;7.236;2023-02-11T06:47:35;4.80;99.90
871;DHT22;422;51.280;7.236;2023-02-11T06:50:03;4.90;99.90
871;DHT22;422;51.280;7.236;2023-02-11T06:52:31;4.90;99.90
871;DHT22;422;51.280;7.236;2023-02-11T06:54:59;4.90;99.90
871;DHT22;422;51.280;7.236;2023-02-11T06:57:29;4.90;99.90
871;DHT22;422;51.280;7.236;2023-02-11T06:59:56;4.90;99.90
871;DHT22;422;51.280;7.236;2023-02-11T07:02:23;4.90;99.90
871;DHT22;422;51.280;7.236;2023-02-11T07:04:51;4.90;99.90
871;DHT22;422;51.280;7.236;2023-02-11T07:07:18;4.90;99.90
871;DHT22;422;51.280;7.236;2023-02-11T07:09:45;4.90;99.90
871;DHT22;422;51.280;7.236;2023-02-11T07:12:12;4.90;99.90
871;DHT22;422;51.280;7.236;2023-02-11T07:14:41;4.90;99.90
871;DHT22;422;51.280;7.236;2023-02-11T07:17:08;4.90;99.90
871;DHT22;422;51.280;7.236;2023-02-11T07:19:36;4.90;99.90
871;DHT22;422;51.280;7.236;2023-02-11T07:22:03;4.90;99.90
871;DHT22;422;51.280;7.236;2023-02-11T07:24:30;4.90;99.90
871;DHT22;422;51.280;7.236;2023-02-11T07:26:57;4.90;99.90
871;DHT22;422;51.280;7.236;2023-02-11T07:29:24;4.90;99.90
871;DHT22;422;51.280;7.236;2023-02-11T07:31:53;4.90;99.90
871;DHT22;422;51.280;7.236;2023-02-11T07:34:21;4.90;99.90
871;DHT22;422;51.280;7.236;2023-02-11T07:36:48;5.00;99.90
871;DHT22;422;51.280;7.236;2023-02-11T07:39:16;5.00;99.90
871;DHT22;422;51.280;7.236;2023-02-11T07:41:44;4.90;99.90
871;DHT22;422;51.280;7.236;2023-02-11T07:44:12;5.00;99.90
871;DHT22;422;51.280;7.236;2023-02-11T07:46:39;5.00;99.90
871;DHT22;422;51.280;7.236;2023-02-11T07:49:12;5.00;99.90
871;DHT22;422;51.280;7.236;2023-02-11T07:51:39;5.00;99.90
871;DHT22;422;51.280;7.236;2023-02-11T07:54:07;5.00;99.90
871;DHT22;422;51.280;7.236;2023-02-11T07:56:34;5.00;99.90
871;DHT22;422;51.280;7.236;2023-02-11T07:59:02;5.00;99.90
871;DHT22;422;51.280;7.236;2023-02-11T08:01:29;5.10;99.90
871;DHT22;422;51.280;7.236;2023-02-11T08:03:58;5.00;99.90
871;DHT22;422;51.280;7.236;2023-02-11T08:06:28;5.00;99.90
871;DHT22;422;51.280;7.236;2023-02-11T08:08:56;5.00;99.90
871;DHT22;422;51.280;7.236;2023-02-11T08:11:25;5.00;99.90
871;DHT22;422;51.280;7.236;2023-02-11T08:13:53;5.10;99.90
871;DHT22;422;51.280;7.236;2023-02-11T08:16:23;5.10;99.90
871;DHT22;422;51.280;7.236;2023-02-11T08:18:51;5.10;99.90
871;DHT22;422;51.280;7.236;2023-02-11T08:21:19;5.10;99.90
871;DHT22;422;51.280;7.236;2023-02-11T08:23:48;5.00;99.90
871;DHT22;422;51.280;7.236;2023-02-11T08:26:17;5.10;99.90
871;DHT22;422;51.280;7.236;2023-02-11T08:28:46;5.00;99.90
871;DHT22;422;51.280;7.236;2023-02-11T08:31:16;5.10;99.90
871;DHT22;422;51.280;7.236;2023-02-11T08:33:43;5.00;99.90
871;DHT22;422;51.280;7.236;2023-02-11T08:36:13;5.10;99.90
871;DHT22;422;51.280;7.236;2023-02-11T08:38:41;5.10;99.90
871;DHT22;422;51.280;7.236;2023-02-11T08:41:10;5.20;99.90
871;DHT22;422;51.280;7.236;2023-02-11T08:43:39;5.10;99.90
871;DHT22;422;51.280;7.236;2023-02-11T08:46:08;5.20;99.90
871;DHT22;422;51.280;7.236;2023-02-11T08:48:35;5.20;99.90
871;DHT22;422;51.280;7.236;2023-02-11T08:51:05;5.20;99.90
871;DHT22;422;51.280;7.236;2023-02-11T08:53:34;5.20;99.90
871;DHT22;422;51.280;7.236;2023-02-11T08:56:01;5.30;99.90
871;DHT22;422;51.280;7.236;2023-02-11T08:58:30;5.20;99.90
871;DHT22;422;51.280;7.236;2023-02-11T09:00:57;5.30;99.90
871;DHT22;422;51.280;7.236;2023-02-11T09:03:25;5.30;99.90
871;DHT22;422;51.280;7.236;2023-02-11T09:05:52;5.20;99.90
871;DHT22;422;51.280;7.236;2023-02-11T09:08:20;5.30;99.90
871;DHT22;422;51.280;7.236;2023-02-11T09:10:47;5.30;99.90
871;DHT22;422;51.280;7.236;2023-02-11T09:13:14;5.30;99.90
871;DHT22;422;51.280;7.236;2023-02-11T09:15:45;5.40;99.90
871;DHT22;422;51.280;7.236;2023-02-11T09:18:13;5.40;99.90
871;DHT22;422;51.280;7.236;2023-02-11T09:20:40;5.40;99.90
871;DHT22;422;51.280;7.236;2023-02-11T09:23:08;5.40;99.90
871;DHT22;422;51.280;7.236;2023-02-11T09:25:38;5.40;99.90
871;DHT22;422;51.280;7.236;2023-02-11T09:28:05;5.40;99.90
871;DHT22;422;51.280;7.236;2023-02-11T09:30:35;5.50;99.90
871;DHT22;422;51.280;7.236;2023-02-11T09:33:04;5.50;99.90
871;DHT22;422;51.280;7.236;2023-02-11T09:35:32;5.50;99.90
871;DHT22;422;51.280;7.236;2023-02-11T09:37:59;5.50;99.90
871;DHT22;422;51.280;7.236;2023-02-11T09:40:27;5.50;99.90
871;DHT22;422;51.280;7.236;2023-02-11T09:43:01;5.50;99.90
871;DHT22;422;51.280;7.236;2023-02-11T09:45:30;5.60;99.90
871;DHT22;422;51.280;7.236;2023-02-11T09:48:00;5.50;99.90
871;DHT22;422;51.280;7.236;2023-02-11T09:50:32;5.60;99.90
871;DHT22;422;51.280;7.236;2023-02-11T09:53:02;5.60;99.90
871;DHT22;422;51.280;7.236;2023-02-11T09:55:33;5.50;99.90
871;DHT22;422;51.280;7.236;2023-02-11T09:58:04;5.60;99.90
871;DHT22;422;51.280;7.236;2023-02-11T10:00:39;5.70;99.90
871;DHT22;422;51.280;7.236;2023-02-11T10:06:26;5.70;99.90
871;DHT22;422;51.280;7.236;2023-02-11T10:09:00;5.70;99.90
871;DHT22;422;51.280;7.236;2023-02-11T10:11:35;5.70;99.90
871;DHT22;422;51.280;7.236;2023-02-11T10:14:20;5.70;99.90
871;DHT22;422;51.280;7.236;2023-02-11T10:17:00;5.60;99.90
871;DHT22;422;51.280;7.236;2023-02-11T10:19:41;5.70;99.90
871;DHT22;422;51.280;7.236;2023-02-11T10:22:17;5.60;99.90
871;DHT22;422;51.280;7.236;2023-02-11T10:24:50;5.70;99.90
871;DHT22;422;51.280;7.236;2023-02-11T10:27:23;5.70;99.90
871;DHT22;422;51.280;7.236;2023-02-11T10:29:57;5.70;99.90
871;DHT22;422;51.280;7.236;2023-02-11T10:32:31;5.70;99.90
871;DHT22;422;51.280;7.236;2023-02-11T10:35:13;5.80;99.90
871;DHT22;422;51.280;7.236;2023-02-11T10:37:44;5.80;99.90
871;DHT22;422;51.280;7.236;2023-02-11T10:40:14;5.90;99.90
871;DHT22;422;51.280;7.236;2023-02-11T10:42:48;5.80;99.90
871;DHT22;422;51.280;7.236;2023-02-11T10:45:21;5.80;99.90
871;DHT22;422;51.280;7.236;2023-02-11T10:47:50;5.80;99.90
871;DHT22;422;51.280;7.236;2023-02-11T10:50:23;5.80;99.90
871;DHT22;422;51.280;7.236;2023-02-11T10:52:52;5.80;99.90
871;DHT22;422;51.280;7.236;2023-02-11T10:55:36;5.90;99.90
871;DHT22;422;51.280;7.236;2023-02-11T10:58:03;5.90;99.90
871;DHT22;422;51.280;7.236;2023-02-11T11:00:34;5.90;99.90
871;DHT22;422;51.280;7.236;2023-02-11T11:03:05;5.90;99.90
871;DHT22;422;51.280;7.236;2023-02-11T11:05:35;5.90;99.90
871;DHT22;422;51.280;7.236;2023-02-11T11:08:06;6.00;99.90
871;DHT22;422;51.280;7.236;2023-02-11T11:10:37;6.00;99.90
871;DHT22;422;51.280;7.236;2023-02-11T11:13:29;6.00;99.90
871;DHT22;422;51.280;7.236;2023-02-11T11:16:19;6.00;99.90
871;DHT22;422;51.280;7.236;2023-02-11T11:18:48;6.00;99.90
871;DHT22;422;51.280;7.236;2023-02-11T11:21:19;6.00;99.90
871;DHT22;422;51.280;7.236;2023-02-11T11:23:52;6.10;99.90
871;DHT22;422;51.280;7.236;2023-02-11T11:26:21;6.10;99.90
871;DHT22;422;51.280;7.236;2023-02-11T11:28:58;6.10;99.90
871;DHT22;422;51.280;7.236;2023-02-11T11:31:30;6.10;99.90
871;DHT22;422;51.280;7.236;2023-02-11T11:34:01;6.10;99.90
871;DHT22;422;51.280;7.236;2023-02-11T11:36:34;6.10;99.90
871;DHT22;422;51.280;7.236;2023-02-11T11:39:16;6.20;99.90
871;DHT22;422;51.280;7.236;2023-02-11T11:41:53;6.20;99.90
871;DHT22;422;51.280;7.236;2023-02-11T11:44:25;6.20;99.90
871;DHT22;422;51.280;7.236;2023-02-11T11:47:17;6.20;99.90
871;DHT22;422;51.280;7.236;2023-02-11T11:49:53;6.30;99.90
871;DHT22;422;51.280;7.236;2023-02-11T11:52:32;6.30;99.90
871;DHT22;422;51.280;7.236;2023-02-11T11:55:17;6.40;99.90
871;DHT22;422;51.280;7.236;2023-02-11T11:57:47;6.40;99.90
871;DHT22;422;51.280;7.236;2023-02-11T12:00:18;6.30;99.90
871;DHT22;422;51.280;7.236;2023-02-11T12:03:17;6.40;99.90
871;DHT22;422;51.280;7.236;2023-02-11T12:05:52;6.40;99.90
871;DHT22;422;51.280;7.236;2023-02-11T12:08:32;6.40;99.90
871;DHT22;422;51.280;7.236;2023-02-11T12:11:10;6.50;99.90
871;DHT22;422;51.280;7.236;2023-02-11T12:13:49;6.40;99.90
871;DHT22;422;51.280;7.236;2023-02-11T12:16:27;6.50;99.90
871;DHT22;422;51.280;7.236;2023-02-11T12:19:21;6.60;99.90
871;DHT22;422;51.280;7.236;2023-02-11T12:22:05;6.60;99.90
871;DHT22;422;51.280;7.236;2023-02-11T12:27:45;6.60;99.90
871;DHT22;422;51.280;7.236;2023-02-11T12:30:28;6.60;99.90
871;DHT22;422;51.280;7.236;2023-02-11T12:33:04;6.70;99.90
871;DHT22;422;51.280;7.236;2023-02-11T12:35:42;6.70;99.90
871;DHT22;422;51.280;7.236;2023-02-11T12:41:18;6.60;99.90
871;DHT22;422;51.280;7.236;2023-02-11T12:44:14;6.60;99.90
871;DHT22;422;51.280;7.236;2023-02-11T12:46:45;6.60;99.90
871;DHT22;422;51.280;7.236;2023-02-11T12:49:48;6.60;99.90
871;DHT22;422;51.280;7.236;2023-02-11T12:52:25;6.60;99.90
871;DHT22;422;51.280;7.236;2023-02-11T12:54:59;6.50;99.90
871;DHT22;422;51.280;7.236;2023-02-11T12:57:31;6.50;99.90
871;DHT22;422;51.280;7.236;2023-02-11T13:00:05;6.50;99.90
871;DHT22;422;51.280;7.236;2023-02-11T13:02:40;6.60;99.90
871;DHT22;422;51.280;7.236;2023-02-11T13:05:20;6.60;99.90
871;DHT22;422;51.280;7.236;2023-02-11T13:07:49;6.50;99.90
871;DHT22;422;51.280;7.236;2023-02-11T13:10:31;6.50;99.90
871;DHT22;422;51.280;7.236;2023-02-11T13:12:59;6.60;99.90
871;DHT22;422;51.280;7.236;2023-02-11T13:15:48;6.50;99.90
871;DHT22;422;51.280;7.236;2023-02-11T13:18:27;6.50;99.90
871;DHT22;422;51.280;7.236;2023-02-11T13:23:49;6.40;99.90
871;DHT22;422;51.280;7.236;2023-02-11T13:26:26;6.50;99.90
871;DHT22;422;51.280;7.236;2023-02-11T13:28:59;6.50;99.90
871;DHT22;422;51.280;7.236;2023-02-11T13:31:32;6.60;99.90
871;DHT22;422;51.280;7.236;2023-02-11T13:33:59;6.70;99.90
871;DHT22;422;51.280;7.236;2023-02-11T13:36:29;6.60;99.90
871;DHT22;422;51.280;7.236;2023-02-11T13:39:04;6.60;99.90
871;DHT22;422;51.280;7.236;2023-02-11T13:41:35;6.60;99.90
871;DHT22;422;51.280;7.236;2023-02-11T13:44:16;6.60;99.90
871;DHT22;422;51.280;7.236;2023-02-11T13:46:57;6.70;99.90
871;DHT22;422;51.280;7.236;2023-02-11T13:49:30;6.70;99.90
871;DHT22;422;51.280;7.236;2023-02-11T13:52:01;6.70;99.90
871;DHT22;422;51.280;7.236;2023-02-11T13:54:32;6.70;99.90
871;DHT22;422;51.280;7.236;2023-02-11T13:57:20;6.60;99.90
871;DHT22;422;51.280;7.236;2023-02-11T13:59:49;6.60;99.90
871;DHT22;422;51.280;7.236;2023-02-11T14:02:23;6.60;99.90
871;DHT22;422;51.280;7.236;2023-02-11T14:05:28;6.60;99.90
871;DHT22;422;51.280;7.236;2023-02-11T14:08:21;6.70;99.90
871;DHT22;422;51.280;7.236;2023-02-11T14:11:43;6.70;99.90
871;DHT22;422;51.280;7.236;2023-02-11T14:14:22;6.70;99.90
871;DHT22;422;51.280;7.236;2023-02-11T14:19:49;6.60;99.90
871;DHT22;422;51.280;7.236;2023-02-11T14:22:18;6.70;99.90
871;DHT22;422;51.280;7.236;2023-02-11T14:24:51;6.70;99.90
871;DHT22;422;51.280;7.236;2023-02-11T14:27:28;6.70;99.90
871;DHT22;422;51.280;7.236;2023-02-11T14:30:25;6.60;99.90
871;DHT22;422;51.280;7.236;2023-02-11T14:33:12;6.60;99.90
871;DHT22;422;51.280;7.236;2023-02-11T14:35:52;6.60;99.90
871;DHT22;422;51.280;7.236;2023-02-11T14:38:28;6.60;99.90
871;DHT22;422;51.280;7.236;2023-02-11T14:41:05;6.60;99.90
871;DHT22;422;51.280;7.236;2023-02-11T14:43:37;6.60;99.90
871;DHT22;422;51.280;7.236;2023-02-11T14:46:07;6.60;99.90
871;DHT22;422;51.280;7.236;2023-02-11T14:48:37;6.60;99.90
871;DHT22;422;51.280;7.236;2023-02-11T14:51:09;6.60;99.90
871;DHT22;422;51.280;7.236;2023-02-11T14:53:40;6.60;99.90
871;DHT22;422;51.280;7.236;2023-02-11T14:56:17;6.60;99.90
871;DHT22;422;51.280;7.236;2023-02-11T14:58:46;6.60;99.90
871;DHT22;422;51.280;7.236;2023-02-11T15:01:26;6.60;99.90
871;DHT22;422;51.280;7.236;2023-02-11T15:03:54;6.60;99.90
871;DHT22;422;51.280;7.236;2023-02-11T15:06:28;6.60;99.90
871;DHT22;422;51.280;7.236;2023-02-11T15:08:58;6.60;99.90
871;DHT22;422;51.280;7.236;2023-02-11T15:11:27;6.70;99.90
871;DHT22;422;51.280;7.236;2023-02-11T15:13:58;6.70;99.90
871;DHT22;422;51.280;7.236;2023-02-11T15:16:28;6.60;99.90
871;DHT22;422;51.280;7.236;2023-02-11T15:18:58;6.60;99.90
871;DHT22;422;51.280;7.236;2023-02-11T15:21:30;6.60;99.90
871;DHT22;422;51.280;7.236;2023-02-11T15:24:00;6.70;99.90
871;DHT22;422;51.280;7.236;2023-02-11T15:26:28;6.70;99.90
871;DHT22;422;51.280;7.236;2023-02-11T15:28:55;6.70;99.90
871;DHT22;422;51.280;7.236;2023-02-11T15:31:24;6.80;99.90
871;DHT22;422;51.280;7.236;2023-02-11T15:33:53;6.80;99.90
871;DHT22;422;51.280;7.236;2023-02-11T15:36:23;6.80;99.90
871;DHT22;422;51.280;7.236;2023-02-11T15:39:17;6.80;99.90
871;DHT22;422;51.280;7.236;2023-02-11T15:41:44;6.80;99.90
871;DHT22;422;51.280;7.236;2023-02-11T15:44:28;6.90;99.90
871;DHT22;422;51.280;7.236;2023-02-11T15:46:56;6.80;99.90
871;DHT22;422;51.280;7.236;2023-02-11T15:49:24;6.90;99.90
871;DHT22;422;51.280;7.236;2023-02-11T15:51:53;6.90;99.90
871;DHT22;422;51.280;7.236;2023-02-11T15:54:25;6.90;99.90
871;DHT22;422;51.280;7.236;2023-02-11T15:56:58;6.90;99.90
871;DHT22;422;51.280;7.236;2023-02-11T15:59:29;6.90;99.90
871;DHT22;422;51.280;7.236;2023-02-11T16:02:07;6.90;99.90
871;DHT22;422;51.280;7.236;2023-02-11T16:04:35;7.00;99.90
871;DHT22;422;51.280;7.236;2023-02-11T16:07:03;7.00;99.90
871;DHT22;422;51.280;7.236;2023-02-11T16:09:34;6.90;99.90
871;DHT22;422;51.280;7.236;2023-02-11T16:12:03;6.90;99.90
871;DHT22;422;51.280;7.236;2023-02-11T16:14:33;7.00;99.90
871;DHT22;422;51.280;7.236;2023-02-11T16:17:06;7.00;99.90
871;DHT22;422;51.280;7.236;2023-02-11T16:19:35;7.00;99.90
871;DHT22;422;51.280;7.236;2023-02-11T16:22:07;7.00;99.90
871;DHT22;422;51.280;7.236;2023-02-11T16:24:38;7.00;99.90
871;DHT22;422;51.280;7.236;2023-02-11T16:27:16;7.00;99.90
871;DHT22;422;51.280;7.236;2023-02-11T16:29:46;6.90;99.90
871;DHT22;422;51.280;7.236;2023-02-11T16:32:17;6.90;99.90
871;DHT22;422;51.280;7.236;2023-02-11T16:34:44;6.90;99.90
871;DHT22;422;51.280;7.236;2023-02-11T16:37:12;7.00;99.90
871;DHT22;422;51.280;7.236;2023-02-11T16:39:41;6.90;99.90
871;DHT22;422;51.280;7.236;2023-02-11T16:42:09;7.00;99.90
871;DHT22;422;51.280;7.236;2023-02-11T16:44:37;6.90;99.90
871;DHT22;422;51.280;7.236;2023-02-11T16:47:06;6.90;99.90
871;DHT22;422;51.280;7.236;2023-02-11T16:49:36;6.90;99.90
871;DHT22;422;51.280;7.236;2023-02-11T16:52:06;6.90;99.90
871;DHT22;422;51.280;7.236;2023-02-11T16:54:34;7.00;99.90
871;DHT22;422;51.280;7.236;2023-02-11T16:57:07;7.00;99.90
871;DHT22;422;51.280;7.236;2023-02-11T16:59:35;7.00;99.90
871;DHT22;422;51.280;7.236;2023-02-11T17:02:02;7.00;99.90
871;DHT22;422;51.280;7.236;2023-02-11T17:04:30;7.00;99.90
871;DHT22;422;51.280;7.236;2023-02-11T17:06:58;7.00;99.90
871;DHT22;422;51.280;7.236;2023-02-11T17:09:26;6.90;99.90
871;DHT22;422;51.280;7.236;2023-02-11T17:11:53;7.00;99.90
871;DHT22;422;51.280;7.236;2023-02-11T17:14:23;7.00;99.90
871;DHT22;422;51.280;7.236;2023-02-11T17:16:50;7.00;99.90
871;DHT22;422;51.280;7.236;2023-02-11T17:19:19;7.00;99.90
871;DHT22;422;51.280;7.236;2023-02-11T17:21:48;7.00;99.90
871;DHT22;422;51.280;7.236;2023-02-11T17:24:16;7.00;99.90
871;DHT22;422;51.280;7.236;2023-02-11T17:26:44;7.00;99.90
871;DHT22;422;51.280;7.236;2023-02-11T17:29:14;7.00;99.90
871;DHT22;422;51.280;7.236;2023-02-11T17:31:43;7.00;99.90
871;DHT22;422;51.280;7.236;2023-02-11T17:34:10;7.00;99.90
871;DHT22;422;51.280;7.236;2023-02-11T17:36:38;7.00;99.90
871;DHT22;422;51.280;7.236;2023-02-11T17:39:06;7.00;99.90
871;DHT22;422;51.280;7.236;2023-02-11T17:41:33;6.90;99.90
871;DHT22;422;51.280;7.236;2023-02-11T17:44:01;6.90;99.90